KEYW/EYW METAR and TAF weather

Enter ICAO airport designator
Station Type Date Time Source
KEYW METAR 2019/09/21 04:53 UTC NOAA

KEYW 210453Z AUTO 06013G20KT 10SM FEW015 SCT022 BKN032 27/24 A2999 RMK AO2 SLP155 T02720244 403170256


Station Type Date Time Source
KEYW Decoded METAR 2019/09/21 04:53 UTC NOAA

KEY WEST INTERNATIONAL AIRPORT , FL, United States (KEYW) 24-33N 81-46W 5M
Sep 21, 2019 - 12:53 AM EDT / 2019.09.21 0453 UTC
Wind: from the ENE (060 degrees) at 15 MPH (13 KT) gusting to 23 MPH (20 KT):0
Visibility: 10 mile(s):0
Sky conditions: mostly cloudy
Temperature: 81.0 F (27.2 C)
Dew Point: 75.9 F (24.4 C)
Relative Humidity: 84%
Pressure (altimeter): 29.99 in. Hg (1015 hPa)
ob: KEYW 210453Z AUTO 06013G20KT 10SM FEW015 SCT022 BKN032 27/24 A2999 RMK AO2 SLP155 T02720244 403170256
cycle: 5

Station Type Date Time Source
KEYW TAF 2019/09/21 04:58 UTC NOAA

TAF
AMD KEYW 210355Z 2104/2124 08015G25KT P6SM VCSH SCT030 SCT040 SCT050
TEMPO 2104/2106 08020G30KT 2SM +SHRA SCT030 BKN040
FM210600 08017G25KT P6SM VCTS SCT025CB SCT045

Example: see airport list